createdAt,value
2019-04-07T00:01:51.596Z,6.37
2019-04-07T00:04:20.381Z,6.57
2019-04-07T00:06:48.398Z,5.80
2019-04-07T00:09:16.740Z,6.83
2019-04-07T00:11:45.217Z,5.57
2019-04-07T00:14:13.902Z,5.47
2019-04-07T00:19:19.001Z,6.15
2019-04-07T00:21:47.892Z,6.90
2019-04-07T00:24:15.700Z,5.90
2019-04-07T00:26:44.710Z,5.93
2019-04-07T00:29:12.461Z,7.07
2019-04-07T00:31:40.837Z,6.63
2019-04-07T00:34:09.634Z,7.97
2019-04-07T00:36:37.913Z,7.93
2019-04-07T00:41:40.323Z,7.87
2019-04-07T00:44:08.475Z,6.00
2019-04-07T00:49:11.609Z,7.53
2019-04-07T00:51:39.369Z,6.10
2019-04-07T00:54:08.364Z,5.67
2019-04-07T00:56:36.079Z,6.40
2019-04-07T00:59:04.441Z,6.20
2019-04-07T01:01:32.853Z,6.73
2019-04-07T01:04:01.222Z,7.00
2019-04-07T01:06:29.579Z,6.03
2019-04-07T01:11:32.271Z,6.90
2019-04-07T01:14:00.708Z,6.40
2019-04-07T01:16:29.406Z,6.20
2019-04-07T01:18:57.875Z,5.90
2019-04-07T01:21:25.661Z,6.13
2019-04-07T01:23:54.462Z,5.97
2019-04-07T01:26:22.759Z,6.50
2019-04-07T01:28:50.841Z,5.90
2019-04-07T01:31:19.761Z,7.03
2019-04-07T01:36:24.975Z,7.10
2019-04-07T01:38:53.297Z,8.15
2019-04-07T01:41:24.060Z,5.60
2019-04-07T01:43:57.917Z,6.70
2019-04-07T01:49:01.029Z,6.90
2019-04-07T01:57:05.972Z,7.10
2019-04-07T01:59:39.832Z,6.20
2019-04-07T02:04:58.233Z,6.90
2019-04-07T02:07:27.278Z,6.30
2019-04-07T02:10:05.429Z,5.83
2019-04-07T02:18:08.589Z,7.03
2019-04-07T02:20:52.154Z,6.27
2019-04-07T02:26:16.319Z,7.40
2019-04-07T02:37:41.268Z,7.18
2019-04-07T02:40:12.052Z,5.50
2019-04-07T02:42:40.927Z,7.20
2019-04-07T02:48:03.056Z,6.50
2019-04-07T02:50:36.855Z,6.10
2019-04-07T02:56:07.992Z,7.00
2019-04-07T02:58:35.833Z,7.30
2019-04-07T03:01:09.564Z,7.40
2019-04-07T03:03:36.974Z,5.70
2019-04-07T03:06:08.854Z,6.60
2019-04-07T03:08:38.528Z,5.83
2019-04-07T03:11:07.549Z,5.43
2019-04-07T03:16:32.920Z,7.43
2019-04-07T03:24:49.659Z,6.60
2019-04-07T03:27:33.897Z,6.10
2019-04-07T03:30:04.093Z,5.80
2019-04-07T03:32:37.458Z,5.67
2019-04-07T03:35:07.825Z,5.03
2019-04-07T03:40:38.133Z,6.90
2019-04-07T03:43:07.381Z,5.50
2019-04-07T03:45:39.181Z,5.40
2019-04-07T03:48:08.557Z,7.43
2019-04-07T03:50:40.777Z,6.60
2019-04-07T03:53:10.946Z,6.78
2019-04-07T03:55:41.331Z,7.60
2019-04-07T03:58:16.028Z,6.20
2019-04-07T04:01:06.832Z,6.77
2019-04-07T04:03:40.719Z,5.00
2019-04-07T04:06:12.803Z,5.83
2019-04-07T04:08:53.720Z,6.77
2019-04-07T04:11:32.430Z,5.77
2019-04-07T04:14:04.513Z,5.87
2019-04-07T04:16:32.133Z,5.40
2019-04-07T04:19:00.330Z,5.80
2019-04-07T04:21:28.893Z,6.90
2019-04-07T04:23:57.822Z,6.00
2019-04-07T04:26:25.601Z,6.70
2019-04-07T04:28:55.145Z,6.50
2019-04-07T04:31:22.538Z,5.90
2019-04-07T04:33:51.793Z,5.83
2019-04-07T04:36:19.308Z,6.80
2019-04-07T04:38:48.056Z,6.83
2019-04-07T04:41:16.872Z,6.93
2019-04-07T04:43:45.161Z,7.63
2019-04-07T04:46:13.565Z,6.40
2019-04-07T04:48:41.323Z,7.07
2019-04-07T04:51:09.791Z,6.60
2019-04-07T04:53:38.145Z,6.17
2019-04-07T04:58:40.694Z,7.65
2019-04-07T05:01:09.632Z,6.43
2019-04-07T05:03:38.245Z,6.57
2019-04-07T05:08:43.294Z,6.85
2019-04-07T05:11:11.444Z,8.00
2019-04-07T05:13:39.816Z,6.60
2019-04-07T05:16:08.338Z,6.33
2019-04-07T05:18:37.130Z,7.28
2019-04-07T05:21:05.244Z,7.55
2019-04-07T05:23:33.357Z,7.95
2019-04-07T05:26:01.655Z,7.30
2019-04-07T05:28:32.599Z,6.73
2019-04-07T05:30:59.097Z,7.33
2019-04-07T05:33:26.834Z,6.83
2019-04-07T05:38:30.223Z,8.80
2019-04-07T05:40:57.808Z,6.30
2019-04-07T05:43:26.200Z,6.43
2019-04-07T05:45:54.498Z,8.50
2019-04-07T05:48:22.855Z,6.80
2019-04-07T05:50:51.381Z,7.40
2019-04-07T05:53:19.574Z,8.05
2019-04-07T05:55:47.923Z,7.47
2019-04-07T05:58:16.282Z,7.70
2019-04-07T06:03:22.006Z,7.60
2019-04-07T06:05:51.088Z,8.57
2019-04-07T06:08:27.976Z,7.20
2019-04-07T06:10:48.057Z,9.57
2019-04-07T06:13:17.604Z,7.33
2019-04-07T06:20:55.168Z,8.48
2019-04-07T06:26:00.902Z,7.93
2019-04-07T06:28:30.329Z,8.52
2019-04-07T06:33:34.728Z,8.35
2019-04-07T06:36:02.886Z,8.32
2019-04-07T06:38:34.968Z,7.50
2019-04-07T06:41:02.878Z,6.93
2019-04-07T06:43:30.276Z,7.13
2019-04-07T06:46:17.507Z,7.40
2019-04-07T06:48:51.439Z,6.70
2019-04-07T06:51:21.484Z,6.90
2019-04-07T06:53:55.699Z,7.77
2019-04-07T06:56:24.243Z,7.83
2019-04-07T06:58:54.758Z,9.27
2019-04-07T07:01:25.795Z,9.00
2019-04-07T07:06:39.425Z,8.60
2019-04-07T07:09:15.497Z,8.30
2019-04-07T07:11:48.611Z,8.00
2019-04-07T07:16:57.384Z,9.18
2019-04-07T07:27:10.548Z,7.70
2019-04-07T07:32:11.574Z,7.87
2019-04-07T07:34:41.294Z,8.02
2019-04-07T07:37:08.347Z,8.07
2019-04-07T07:42:10.589Z,7.10
2019-04-07T07:44:39.750Z,8.57
2019-04-07T07:49:42.381Z,7.93
2019-04-07T07:52:10.356Z,8.05
2019-04-07T07:54:38.636Z,8.23
2019-04-07T07:57:06.864Z,9.93
2019-04-07T07:59:38.998Z,9.90
2019-04-07T08:02:03.453Z,11.63
2019-04-07T08:04:31.733Z,11.75
2019-04-07T08:07:02.419Z,10.70
2019-04-07T08:09:28.467Z,11.30
2019-04-07T08:11:57.820Z,11.10
2019-04-07T08:14:26.122Z,11.00
2019-04-07T08:16:55.392Z,13.40
2019-04-07T08:21:57.426Z,15.67
2019-04-07T08:24:26.156Z,15.97
2019-04-07T08:26:56.520Z,14.63
2019-04-07T08:29:22.495Z,12.53
2019-04-07T08:31:54.161Z,14.93
2019-04-07T08:34:19.286Z,14.83
2019-04-07T08:36:48.179Z,14.80
2019-04-07T08:39:22.720Z,16.63
2019-04-07T08:44:18.948Z,17.97
2019-04-07T08:51:57.002Z,20.00
2019-04-07T08:54:24.737Z,19.70
2019-04-07T08:56:56.280Z,17.07
2019-04-07T08:59:22.516Z,17.97
2019-04-07T09:01:52.737Z,19.83
2019-04-07T09:06:53.773Z,21.00
2019-04-07T09:09:31.372Z,19.07
2019-04-07T09:11:52.979Z,19.10
2019-04-07T09:16:59.117Z,20.30
2019-04-07T09:19:37.046Z,19.90
2019-04-07T09:22:10.516Z,20.63
2019-04-07T09:30:26.145Z,22.75
2019-04-07T09:35:56.651Z,22.90
2019-04-07T09:38:27.395Z,25.48
2019-04-07T09:43:30.606Z,24.30
2019-04-07T09:46:11.926Z,24.98
2019-04-07T09:51:19.711Z,23.40
2019-04-07T09:53:51.025Z,24.20
2019-04-07T09:58:53.610Z,26.10
2019-04-07T10:01:27.957Z,28.17
2019-04-07T10:06:30.776Z,24.63
2019-04-07T10:08:59.964Z,24.73
2019-04-07T10:11:28.486Z,24.10
2019-04-07T10:16:57.922Z,25.33
2019-04-07T10:19:39.128Z,25.30
2019-04-07T10:22:07.387Z,25.47
2019-04-07T10:24:37.473Z,27.83
2019-04-07T10:27:08.218Z,25.97
2019-04-07T10:29:41.512Z,25.20
2019-04-07T10:32:15.374Z,25.43
2019-04-07T10:34:45.054Z,23.70
2019-04-07T10:37:13.373Z,25.40
2019-04-07T10:42:10.361Z,28.40
2019-04-07T10:44:55.324Z,28.97
2019-04-07T10:47:23.945Z,26.27
2019-04-07T10:50:00.998Z,25.57
2019-04-07T10:52:41.680Z,26.33
2019-04-07T10:58:07.262Z,30.80
2019-04-07T11:00:45.256Z,31.77
2019-04-07T11:03:14.708Z,29.57
2019-04-07T11:05:55.975Z,29.70
2019-04-07T11:13:42.150Z,32.20
2019-04-07T11:16:11.677Z,31.73
2019-04-07T11:18:41.014Z,31.70
2019-04-07T11:24:08.939Z,30.17
2019-04-07T11:32:20.696Z,31.35
2019-04-07T11:34:53.410Z,29.90
2019-04-07T11:37:32.838Z,28.77
2019-04-07T11:43:00.525Z,30.37
2019-04-07T11:45:29.234Z,30.70
2019-04-07T11:51:26.039Z,30.35
2019-04-07T12:02:21.697Z,29.83
2019-04-07T12:04:52.018Z,29.20
2019-04-07T12:16:05.654Z,29.30
2019-04-07T12:21:20.736Z,28.47
2019-04-07T12:26:42.135Z,29.60
2019-04-07T12:31:44.235Z,30.25
2019-04-07T12:34:27.541Z,25.77
2019-04-07T12:45:26.602Z,27.50
2019-04-07T12:48:05.862Z,24.60
2019-04-07T12:50:35.631Z,23.93
2019-04-07T13:01:53.267Z,25.65
2019-04-07T13:07:17.098Z,25.75
2019-04-07T13:19:46.718Z,24.52
2019-04-07T13:24:48.745Z,23.67
2019-04-07T13:27:24.136Z,22.93
2019-04-07T13:35:50.875Z,20.10
2019-04-07T13:38:25.076Z,17.70
2019-04-07T13:40:53.111Z,17.50
2019-04-07T13:43:31.158Z,17.10
2019-04-07T13:51:36.524Z,17.50
2019-04-07T13:56:49.825Z,16.85
2019-04-07T13:59:19.456Z,15.60
2019-04-07T14:07:26.311Z,14.93
2019-04-07T14:09:57.098Z,15.80
2019-04-07T14:12:30.961Z,14.97
2019-04-07T14:14:57.047Z,15.55
2019-04-07T14:17:25.022Z,13.60
2019-04-07T14:22:28.873Z,15.95
2019-04-07T14:24:57.905Z,14.87
2019-04-07T14:27:36.222Z,14.43
2019-04-07T14:30:07.826Z,14.45
2019-04-07T14:32:39.592Z,13.70
2019-04-07T14:35:14.056Z,14.45
2019-04-07T14:37:49.435Z,12.70
2019-04-07T14:42:52.254Z,13.30
2019-04-07T14:45:27.068Z,12.75
2019-04-07T14:48:05.506Z,13.90
2019-04-07T14:53:35.540Z,14.35
2019-04-07T14:56:07.785Z,13.67
2019-04-07T14:58:38.024Z,13.03
2019-04-07T15:01:08.422Z,11.50
2019-04-07T15:03:36.350Z,12.43
2019-04-07T15:06:04.107Z,12.65
2019-04-07T15:08:33.246Z,10.77
2019-04-07T15:11:02.606Z,11.30
2019-04-07T15:16:04.500Z,11.70
2019-04-07T15:18:34.839Z,10.40
2019-04-07T15:23:38.478Z,11.50
2019-04-07T15:26:07.718Z,9.70
2019-04-07T15:28:35.371Z,9.97
2019-04-07T15:31:04.276Z,11.00
2019-04-07T15:36:08.906Z,10.87
2019-04-07T15:38:35.604Z,10.03
2019-04-07T15:41:07.748Z,9.23
2019-04-07T15:43:34.914Z,10.67
2019-04-07T15:46:00.160Z,10.80
2019-04-07T15:48:28.601Z,9.67
2019-04-07T15:51:00.807Z,9.80
2019-04-07T15:53:25.678Z,10.23
2019-04-07T15:56:01.973Z,10.00
2019-04-07T15:58:22.593Z,10.97
2019-04-07T16:00:51.595Z,11.17
2019-04-07T16:03:19.269Z,12.10
2019-04-07T16:08:27.253Z,12.50
2019-04-07T16:10:53.635Z,13.50
2019-04-07T16:13:21.732Z,13.00
2019-04-07T16:15:52.885Z,12.80
2019-04-07T16:18:18.972Z,12.10
2019-04-07T16:20:46.808Z,11.60
2019-04-07T16:23:18.325Z,12.70
2019-04-07T16:28:18.651Z,13.57
2019-04-07T16:30:50.169Z,13.30
2019-04-07T16:33:15.301Z,13.60
2019-04-07T16:35:43.979Z,13.43
2019-04-07T16:38:11.982Z,13.73
2019-04-07T16:40:42.085Z,13.48
2019-04-07T16:43:14.538Z,13.77
2019-04-07T16:48:11.526Z,12.75
2019-04-07T16:50:39.888Z,14.00
2019-04-07T16:55:46.613Z,15.30
2019-04-07T16:58:11.686Z,13.40
2019-04-07T17:00:39.873Z,13.90
2019-04-07T17:03:08.613Z,13.73
2019-04-07T17:05:37.520Z,13.63
2019-04-07T17:08:05.515Z,13.60
2019-04-07T17:10:35.291Z,15.57
2019-04-07T17:13:13.806Z,13.80
2019-04-07T17:15:31.639Z,13.03
2019-04-07T17:17:59.140Z,13.00
2019-04-07T17:20:28.425Z,12.50
2019-04-07T17:22:56.836Z,12.80
2019-04-07T17:25:25.457Z,13.00
2019-04-07T17:27:53.053Z,11.63
2019-04-07T17:30:24.916Z,11.70
2019-04-07T17:32:52.070Z,11.90
2019-04-07T17:35:19.118Z,11.60
2019-04-07T17:37:47.479Z,12.70
2019-04-07T17:42:52.698Z,13.83
2019-04-07T17:45:23.633Z,12.73
2019-04-07T17:47:53.124Z,11.50
2019-04-07T17:50:26.068Z,11.57
2019-04-07T17:55:33.125Z,13.83
2019-04-07T17:58:07.867Z,13.93
2019-04-07T18:00:41.077Z,12.67
2019-04-07T18:05:47.296Z,12.27
2019-04-07T18:08:15.894Z,13.40
2019-04-07T18:10:48.598Z,12.77
2019-04-07T18:15:51.025Z,12.70
2019-04-07T18:18:26.427Z,12.17
2019-04-07T18:23:34.816Z,12.37
2019-04-07T18:26:04.239Z,11.93
2019-04-07T18:28:39.155Z,12.60
2019-04-07T18:31:22.108Z,12.13
2019-04-07T18:33:55.108Z,11.43
2019-04-07T18:36:25.738Z,11.87
2019-04-07T18:39:00.396Z,11.13
2019-04-07T18:41:35.723Z,10.37
2019-04-07T18:44:08.608Z,11.30
2019-04-07T18:46:39.953Z,11.37
2019-04-07T18:49:13.304Z,9.90
2019-04-07T18:51:46.638Z,11.50
2019-04-07T18:56:47.496Z,11.10
2019-04-07T18:59:20.144Z,10.77
2019-04-07T19:01:47.357Z,8.50
2019-04-07T19:12:10.564Z,10.32
2019-04-07T19:14:44.272Z,9.90
2019-04-07T19:17:24.433Z,11.30
2019-04-07T19:22:25.976Z,11.87
2019-04-07T19:27:35.282Z,11.43
2019-04-07T19:30:05.887Z,10.57
2019-04-07T19:32:36.870Z,17.00
2019-04-07T19:38:14.271Z,15.83
2019-04-07T19:43:33.076Z,15.00
2019-04-07T19:48:44.936Z,13.20
2019-04-07T19:51:26.358Z,12.00
2019-04-07T19:53:58.017Z,11.50
2019-04-07T20:01:40.814Z,12.20
2019-04-07T20:04:14.656Z,11.30
2019-04-07T20:18:06.002Z,11.70
2019-04-07T20:20:46.882Z,11.90
2019-04-07T20:23:17.368Z,11.10
2019-04-07T20:25:49.210Z,10.80
2019-04-07T20:28:17.437Z,11.47
2019-04-07T20:30:49.754Z,11.60
2019-04-07T20:33:38.062Z,11.20
2019-04-07T20:36:20.095Z,11.63
2019-04-07T20:38:46.493Z,11.90
2019-04-07T20:41:24.340Z,11.17
2019-04-07T20:43:57.592Z,11.47
2019-04-07T20:46:30.554Z,10.90
2019-04-07T20:51:37.102Z,13.00
2019-04-07T20:54:07.678Z,12.57
2019-04-07T20:56:41.972Z,11.57
2019-04-07T21:02:10.937Z,12.95
2019-04-07T21:07:35.869Z,12.98
2019-04-07T21:10:10.903Z,10.90
2019-04-07T21:15:23.642Z,13.15
2019-04-07T21:17:42.319Z,11.40
2019-04-07T21:20:21.256Z,11.30
2019-04-07T21:22:54.976Z,12.00
2019-04-07T21:25:25.150Z,11.90
2019-04-07T21:27:54.741Z,12.00
2019-04-07T21:33:09.425Z,13.25
2019-04-07T21:35:53.596Z,12.07
2019-04-07T21:38:26.190Z,11.20
2019-04-07T21:40:55.561Z,11.00
2019-04-07T21:43:29.362Z,11.17
2019-04-07T21:54:04.104Z,13.30
2019-04-07T21:56:34.729Z,12.37
2019-04-07T21:59:07.619Z,10.40
2019-04-07T22:01:37.769Z,11.03
2019-04-07T22:04:05.015Z,11.87
2019-04-07T22:09:24.632Z,12.98
2019-04-07T22:14:26.667Z,13.05
2019-04-07T22:16:56.828Z,11.97
2019-04-07T22:19:24.411Z,13.20
2019-04-07T22:21:55.001Z,12.20
2019-04-07T22:24:21.912Z,11.17
2019-04-07T22:26:50.254Z,10.83
2019-04-07T22:29:18.244Z,9.50
2019-04-07T22:31:47.989Z,12.73
2019-04-07T22:34:16.555Z,11.80
2019-04-07T22:36:46.774Z,12.07
2019-04-07T22:39:14.100Z,10.80
2019-04-07T22:41:42.654Z,9.50
2019-04-07T22:44:11.324Z,11.00
2019-04-07T22:46:39.596Z,10.37
2019-04-07T22:49:07.565Z,10.23
2019-04-07T22:51:38.095Z,11.88
2019-04-07T22:54:05.778Z,10.80
2019-04-07T22:56:38.124Z,9.93
2019-04-07T22:59:04.227Z,10.07
2019-04-07T23:01:35.458Z,9.90
2019-04-07T23:06:38.326Z,12.90
2019-04-07T23:09:06.151Z,11.33
2019-04-07T23:11:35.469Z,9.47
2019-04-07T23:14:03.109Z,10.20
2019-04-07T23:16:31.670Z,10.83
2019-04-07T23:19:02.589Z,13.52
2019-04-07T23:21:30.028Z,12.33
2019-04-07T23:23:58.394Z,11.97
2019-04-07T23:26:26.743Z,12.47
2019-04-07T23:28:56.059Z,10.60
2019-04-07T23:31:24.340Z,11.93
2019-04-07T23:33:52.679Z,10.90
2019-04-07T23:36:21.028Z,11.07
2019-04-07T23:38:49.628Z,12.73
2019-04-07T23:41:18.097Z,11.70
2019-04-07T23:43:46.058Z,13.60
2019-04-07T23:46:22.846Z,12.97
2019-04-07T23:48:43.798Z,18.75
2019-04-07T23:51:12.304Z,16.43
